SWA1403 KCMH-KDCA
Flight info
| Callsign | SWA1403 |
|---|---|
| Flight time | 0h 45m |
| Altitude | 31000 |
| Route | OWEBO AIR BUCKO FRDMM6 |
| Aircraft | B738/M-SADE2E3GIJ4RWZ/LB1D1 |
Departure
| Time | 2026-05-08 02:38 |
|---|---|
| Airport | John Glenn Columbus International Airport (KCMH) |
Arrival
| Time | 2026-05-08 03:24 |
|---|---|
| Airport | Ronald Reagan Washington National Airport (KDCA) |
| Time | Latitude | Longitude | Altitude | Speed | Heading |
|---|---|---|---|---|---|
| 2026-05-08 02:25 | 39.99699 | -82.88000 | 821 ft | 0 kts | 284° |
| 2026-05-08 02:33 | 39.99703 | -82.88020 | 819 ft | 0 kts | 284° |
| 2026-05-08 02:34 | 39.99705 | -82.88022 | 819 ft | 1 kts | 303° |
| 2026-05-08 02:34 | 39.99710 | -82.88020 | 819 ft | 2 kts | 10° |
| 2026-05-08 02:34 | 39.99721 | -82.88005 | 819 ft | 3 kts | 61° |
| 2026-05-08 02:35 | 39.99724 | -82.87969 | 821 ft | 7 kts | 96° |
| 2026-05-08 02:35 | 39.99645 | -82.87925 | 821 ft | 20 kts | 179° |
| 2026-05-08 02:35 | 39.99517 | -82.87925 | 823 ft | 8 kts | 167° |
| 2026-05-08 02:35 | 39.99485 | -82.87871 | 823 ft | 8 kts | 104° |
| 2026-05-08 02:36 | 39.99467 | -82.87807 | 823 ft | 8 kts | 127° |
| 2026-05-08 02:36 | 39.99420 | -82.87778 | 823 ft | 8 kts | 170° |
| 2026-05-08 02:36 | 39.99373 | -82.87748 | 822 ft | 8 kts | 124° |
| 2026-05-08 02:36 | 39.99359 | -82.87681 | 822 ft | 8 kts | 97° |
| 2026-05-08 02:37 | 39.99353 | -82.87583 | 818 ft | 18 kts | 94° |
| 2026-05-08 02:37 | 39.99263 | -82.87435 | 818 ft | 27 kts | 189° |
| 2026-05-08 02:37 | 39.99179 | -82.87586 | 817 ft | 23 kts | 274° |
| 2026-05-08 02:37 | 39.99199 | -82.87954 | 817 ft | 74 kts | 274° |
| 2026-05-08 02:38 | 39.99255 | -82.88925 | 820 ft | 139 kts | 275° |
| 2026-05-08 02:38 | 39.99331 | -82.90392 | 1037 ft | 174 kts | 273° |
| 2026-05-08 02:38 | 39.99433 | -82.91960 | 1885 ft | 175 kts | 278° |
| 2026-05-08 02:38 | 39.99710 | -82.93492 | 2826 ft | 170 kts | 286° |
| 2026-05-08 02:39 | 40.00127 | -82.94920 | 3624 ft | 178 kts | 297° |
| 2026-05-08 02:39 | 40.01152 | -82.96019 | 3889 ft | 211 kts | 340° |
| 2026-05-08 02:39 | 40.02673 | -82.95920 | 4110 ft | 241 kts | 21° |
| 2026-05-08 02:39 | 40.03947 | -82.94434 | 4604 ft | 256 kts | 58° |
| 2026-05-08 02:40 | 40.04684 | -82.92261 | 5107 ft | 271 kts | 70° |
| 2026-05-08 02:40 | 40.04967 | -82.89755 | 5632 ft | 286 kts | 90° |
| 2026-05-08 02:40 | 40.04966 | -82.87128 | 6420 ft | 293 kts | 91° |
| 2026-05-08 02:40 | 40.04949 | -82.84434 | 7291 ft | 299 kts | 90° |
| 2026-05-08 02:41 | 40.04950 | -82.81701 | 8173 ft | 304 kts | 89° |
| 2026-05-08 02:41 | 40.04975 | -82.78914 | 9048 ft | 310 kts | 87° |
| 2026-05-08 02:41 | 40.04972 | -82.76073 | 9979 ft | 314 kts | 89° |
| 2026-05-08 02:41 | 40.04865 | -82.73211 | 10794 ft | 320 kts | 90° |
| 2026-05-08 02:42 | 40.04777 | -82.70276 | 11569 ft | 326 kts | 88° |
| 2026-05-08 02:42 | 40.04742 | -82.67299 | 12378 ft | 331 kts | 86° |
| 2026-05-08 02:42 | 40.04754 | -82.64269 | 13187 ft | 336 kts | 85° |
| 2026-05-08 02:42 | 40.04805 | -82.61189 | 13980 ft | 342 kts | 84° |
| 2026-05-08 02:43 | 40.04882 | -82.58065 | 14714 ft | 346 kts | 84° |
| 2026-05-08 02:43 | 40.04975 | -82.54918 | 15468 ft | 350 kts | 83° |
| 2026-05-08 02:43 | 40.05080 | -82.51724 | 16196 ft | 355 kts | 83° |
| 2026-05-08 02:43 | 40.05191 | -82.48471 | 16928 ft | 360 kts | 83° |
| 2026-05-08 02:44 | 40.05306 | -82.45183 | 17647 ft | 366 kts | 83° |
| 2026-05-08 02:44 | 40.05423 | -82.41844 | 18365 ft | 371 kts | 83° |
| 2026-05-08 02:44 | 40.05542 | -82.38452 | 18948 ft | 377 kts | 84° |
| 2026-05-08 02:44 | 40.05661 | -82.35052 | 19483 ft | 384 kts | 84° |
| 2026-05-08 02:45 | 40.05783 | -82.31532 | 20017 ft | 392 kts | 84° |
| 2026-05-08 02:45 | 40.05906 | -82.27940 | 20564 ft | 399 kts | 84° |
| 2026-05-08 02:45 | 40.06029 | -82.24298 | 21113 ft | 406 kts | 85° |
| 2026-05-08 02:45 | 40.06154 | -82.20576 | 21642 ft | 414 kts | 85° |
| 2026-05-08 02:46 | 40.06279 | -82.16781 | 22179 ft | 421 kts | 85° |
| 2026-05-08 02:46 | 40.06405 | -82.12936 | 22713 ft | 427 kts | 85° |
| 2026-05-08 02:46 | 40.06532 | -82.09026 | 23241 ft | 434 kts | 85° |
| 2026-05-08 02:46 | 40.06659 | -82.05057 | 23720 ft | 441 kts | 86° |
| 2026-05-08 02:47 | 40.06788 | -82.01025 | 24055 ft | 451 kts | 86° |
| 2026-05-08 02:47 | 40.06921 | -81.96853 | 24138 ft | 468 kts | 86° |
| 2026-05-08 02:47 | 40.07056 | -81.92537 | 24240 ft | 483 kts | 86° |
| 2026-05-08 02:47 | 40.07193 | -81.88076 | 24393 ft | 496 kts | 86° |
| 2026-05-08 02:48 | 40.07330 | -81.83535 | 24727 ft | 503 kts | 86° |
| 2026-05-08 02:48 | 40.07466 | -81.78964 | 25184 ft | 506 kts | 86° |
| 2026-05-08 02:48 | 40.07601 | -81.74412 | 25648 ft | 508 kts | 86° |
| 2026-05-08 02:48 | 40.07693 | -81.69778 | 26064 ft | 513 kts | 90° |
| 2026-05-08 02:49 | 40.07512 | -81.65110 | 26464 ft | 517 kts | 95° |
| 2026-05-08 02:49 | 40.07196 | -81.60408 | 26841 ft | 522 kts | 96° |
| 2026-05-08 02:49 | 40.06831 | -81.55679 | 27204 ft | 526 kts | 96° |
| 2026-05-08 02:49 | 40.06460 | -81.50908 | 27591 ft | 529 kts | 96° |
| 2026-05-08 02:50 | 40.06105 | -81.46103 | 27973 ft | 533 kts | 96° |
| 2026-05-08 02:50 | 40.05880 | -81.42901 | 28217 ft | 535 kts | 96° |
| 2026-05-08 02:50 | 40.05443 | -81.36455 | 28670 ft | 541 kts | 96° |
| 2026-05-08 02:50 | 40.05089 | -81.31550 | 28978 ft | 546 kts | 96° |
| 2026-05-08 02:51 | 40.04739 | -81.26589 | 29290 ft | 550 kts | 95° |
| 2026-05-08 02:51 | 40.04426 | -81.21595 | 29648 ft | 553 kts | 95° |
| 2026-05-08 02:51 | 40.04219 | -81.18211 | 29913 ft | 555 kts | 95° |
| 2026-05-08 02:51 | 40.03893 | -81.13186 | 30288 ft | 555 kts | 95° |
| 2026-05-08 02:52 | 40.03565 | -81.08266 | 30874 ft | 550 kts | 95° |
| 2026-05-08 02:52 | 40.03227 | -81.03281 | 31077 ft | 552 kts | 95° |
| 2026-05-08 02:52 | 40.02626 | -80.93297 | 31030 ft | 549 kts | 95° |
| 2026-05-08 02:53 | 40.01664 | -80.83477 | 31005 ft | 546 kts | 105° |
| 2026-05-08 02:53 | 39.99064 | -80.74250 | 30963 ft | 542 kts | 124° |
| 2026-05-08 02:54 | 39.97094 | -80.70123 | 31226 ft | 531 kts | 133° |
| 2026-05-08 02:54 | 39.94797 | -80.66350 | 30966 ft | 534 kts | 140° |
| 2026-05-08 02:54 | 39.92290 | -80.62796 | 30947 ft | 523 kts | 144° |
| 2026-05-08 02:54 | 39.89741 | -80.59591 | 31192 ft | 511 kts | 149° |
| 2026-05-08 02:55 | 39.87007 | -80.56636 | 31029 ft | 511 kts | 152° |
| 2026-05-08 02:55 | 39.81391 | -80.51090 | 31083 ft | 509 kts | 151° |
| 2026-05-08 02:55 | 39.78763 | -80.47933 | 31178 ft | 520 kts | 142° |
| 2026-05-08 02:56 | 39.76219 | -80.44606 | 31115 ft | 517 kts | 147° |
| 2026-05-08 02:56 | 39.73520 | -80.41474 | 30869 ft | 520 kts | 149° |
| 2026-05-08 02:56 | 39.70760 | -80.38496 | 31017 ft | 513 kts | 151° |
| 2026-05-08 02:57 | 39.65251 | -80.32592 | 31102 ft | 511 kts | 150° |
| 2026-05-08 02:57 | 39.62524 | -80.29571 | 30866 ft | 521 kts | 147° |
| 2026-05-08 02:57 | 39.59901 | -80.26328 | 30944 ft | 520 kts | 144° |
| 2026-05-08 02:57 | 39.57383 | -80.22959 | 31060 ft | 519 kts | 142° |
| 2026-05-08 02:58 | 39.54924 | -80.19505 | 30956 ft | 523 kts | 141° |
| 2026-05-08 02:58 | 39.50105 | -80.12422 | 30966 ft | 527 kts | 136° |
| 2026-05-08 02:58 | 39.47804 | -80.08665 | 30836 ft | 531 kts | 137° |
| 2026-05-08 02:59 | 39.45481 | -80.04971 | 31033 ft | 525 kts | 137° |
| 2026-05-08 02:59 | 39.40958 | -79.97547 | 31018 ft | 528 kts | 135° |
| 2026-05-08 03:00 | 39.36558 | -79.89998 | 31073 ft | 523 kts | 138° |
| 2026-05-08 03:00 | 39.34016 | -79.86762 | 31025 ft | 507 kts | 151° |
| 2026-05-08 03:00 | 39.31375 | -79.83709 | 31017 ft | 518 kts | 142° |
| 2026-05-08 03:00 | 39.29296 | -79.79762 | 30895 ft | 545 kts | 121° |
| 2026-05-08 03:01 | 39.28136 | -79.75030 | 30226 ft | 561 kts | 99° |
| 2026-05-08 03:01 | 39.27909 | -79.70042 | 29838 ft | 553 kts | 91° |
| 2026-05-08 03:01 | 39.27867 | -79.65092 | 29218 ft | 549 kts | 92° |
| 2026-05-08 03:01 | 39.27671 | -79.60204 | 28774 ft | 542 kts | 96° |
| 2026-05-08 03:02 | 39.27307 | -79.55393 | 28292 ft | 536 kts | 98° |
| 2026-05-08 03:02 | 39.26895 | -79.50636 | 27837 ft | 530 kts | 98° |
| 2026-05-08 03:02 | 39.26485 | -79.45935 | 27377 ft | 525 kts | 98° |
| 2026-05-08 03:02 | 39.26087 | -79.41263 | 26908 ft | 519 kts | 98° |
| 2026-05-08 03:03 | 39.25705 | -79.36642 | 26474 ft | 514 kts | 98° |
| 2026-05-08 03:03 | 39.25331 | -79.32082 | 26039 ft | 509 kts | 98° |
| 2026-05-08 03:03 | 39.24959 | -79.27568 | 25605 ft | 504 kts | 98° |
| 2026-05-08 03:03 | 39.24587 | -79.23081 | 25188 ft | 500 kts | 98° |
| 2026-05-08 03:04 | 39.24214 | -79.18645 | 24766 ft | 496 kts | 98° |
| 2026-05-08 03:04 | 39.23837 | -79.14227 | 24342 ft | 493 kts | 98° |
| 2026-05-08 03:04 | 39.23467 | -79.09905 | 23912 ft | 490 kts | 98° |
| 2026-05-08 03:04 | 39.23093 | -79.05547 | 23481 ft | 487 kts | 98° |
| 2026-05-08 03:05 | 39.22720 | -79.01214 | 23007 ft | 484 kts | 98° |
| 2026-05-08 03:05 | 39.22350 | -78.96918 | 22542 ft | 480 kts | 98° |
| 2026-05-08 03:05 | 39.21966 | -78.92666 | 22151 ft | 476 kts | 99° |
| 2026-05-08 03:05 | 39.21558 | -78.88447 | 21731 ft | 472 kts | 99° |
| 2026-05-08 03:06 | 39.21149 | -78.84262 | 21329 ft | 466 kts | 99° |
| 2026-05-08 03:06 | 39.20738 | -78.80143 | 20935 ft | 462 kts | 99° |
| 2026-05-08 03:06 | 39.20335 | -78.76037 | 20523 ft | 458 kts | 99° |
| 2026-05-08 03:06 | 39.19941 | -78.71977 | 20141 ft | 454 kts | 99° |
| 2026-05-08 03:07 | 39.19549 | -78.67967 | 19745 ft | 450 kts | 99° |
| 2026-05-08 03:07 | 39.19155 | -78.63969 | 19350 ft | 446 kts | 100° |
| 2026-05-08 03:07 | 39.18771 | -78.60083 | 18988 ft | 441 kts | 100° |
| 2026-05-08 03:07 | 39.18383 | -78.56173 | 18608 ft | 438 kts | 100° |
| 2026-05-08 03:08 | 39.17997 | -78.52297 | 18241 ft | 434 kts | 99° |
| 2026-05-08 03:08 | 39.17614 | -78.48460 | 17818 ft | 430 kts | 99° |
| 2026-05-08 03:08 | 39.17233 | -78.44652 | 17421 ft | 426 kts | 99° |
| 2026-05-08 03:08 | 39.16856 | -78.40893 | 17045 ft | 421 kts | 99° |
| 2026-05-08 03:09 | 39.16476 | -78.37166 | 16677 ft | 417 kts | 100° |
| 2026-05-08 03:09 | 39.15874 | -78.33544 | 16316 ft | 409 kts | 109° |
| 2026-05-08 03:09 | 39.15010 | -78.30096 | 15986 ft | 402 kts | 112° |
| 2026-05-08 03:09 | 39.14084 | -78.26714 | 15634 ft | 397 kts | 112° |
| 2026-05-08 03:10 | 39.13183 | -78.23381 | 15296 ft | 392 kts | 111° |
| 2026-05-08 03:10 | 39.12320 | -78.20062 | 14958 ft | 388 kts | 110° |
| 2026-05-08 03:10 | 39.11493 | -78.16778 | 14628 ft | 383 kts | 110° |
| 2026-05-08 03:10 | 39.10683 | -78.13529 | 14313 ft | 379 kts | 109° |
| 2026-05-08 03:11 | 39.09893 | -78.10360 | 13991 ft | 375 kts | 109° |
| 2026-05-08 03:11 | 39.09088 | -78.07188 | 13657 ft | 371 kts | 109° |
| 2026-05-08 03:11 | 39.08287 | -78.04057 | 13296 ft | 367 kts | 109° |
| 2026-05-08 03:11 | 39.07492 | -78.00956 | 12967 ft | 363 kts | 109° |
| 2026-05-08 03:12 | 39.06703 | -77.97874 | 12646 ft | 362 kts | 109° |
| 2026-05-08 03:12 | 39.05912 | -77.94787 | 12338 ft | 363 kts | 109° |
| 2026-05-08 03:12 | 39.05127 | -77.91720 | 12014 ft | 359 kts | 109° |
| 2026-05-08 03:12 | 39.04350 | -77.88695 | 11725 ft | 354 kts | 109° |
| 2026-05-08 03:13 | 39.03578 | -77.85698 | 11417 ft | 351 kts | 109° |
| 2026-05-08 03:13 | 39.02815 | -77.82736 | 11105 ft | 346 kts | 108° |
| 2026-05-08 03:13 | 39.02063 | -77.79815 | 10828 ft | 342 kts | 108° |
| 2026-05-08 03:13 | 39.01319 | -77.76934 | 10542 ft | 338 kts | 108° |
| 2026-05-08 03:14 | 39.00581 | -77.74076 | 10250 ft | 334 kts | 108° |
| 2026-05-08 03:14 | 38.99862 | -77.71294 | 9960 ft | 323 kts | 108° |
| 2026-05-08 03:14 | 38.99169 | -77.68621 | 9882 ft | 307 kts | 107° |
| 2026-05-08 03:14 | 38.98492 | -77.66012 | 9422 ft | 305 kts | 107° |
| 2026-05-08 03:15 | 38.97799 | -77.63480 | 9151 ft | 296 kts | 110° |
| 2026-05-08 03:15 | 38.97075 | -77.61051 | 8893 ft | 295 kts | 110° |
| 2026-05-08 03:15 | 38.96335 | -77.58585 | 8622 ft | 296 kts | 110° |
| 2026-05-08 03:15 | 38.95599 | -77.56115 | 8363 ft | 296 kts | 110° |
| 2026-05-08 03:16 | 38.94872 | -77.53632 | 8104 ft | 296 kts | 107° |
| 2026-05-08 03:16 | 38.94667 | -77.51043 | 7791 ft | 291 kts | 78° |
| 2026-05-08 03:16 | 38.95248 | -77.48598 | 7509 ft | 285 kts | 64° |
| 2026-05-08 03:16 | 38.96040 | -77.46268 | 7193 ft | 284 kts | 62° |
| 2026-05-08 03:17 | 38.96849 | -77.43949 | 6872 ft | 284 kts | 63° |
| 2026-05-08 03:17 | 38.97649 | -77.41626 | 6552 ft | 284 kts | 63° |
| 2026-05-08 03:17 | 38.98437 | -77.39300 | 6233 ft | 284 kts | 63° |
| 2026-05-08 03:17 | 38.99218 | -77.36971 | 5900 ft | 284 kts | 63° |
| 2026-05-08 03:18 | 38.99991 | -77.34652 | 5561 ft | 278 kts | 63° |
| 2026-05-08 03:18 | 39.00740 | -77.32402 | 5251 ft | 273 kts | 63° |
| 2026-05-08 03:18 | 39.01495 | -77.30159 | 4949 ft | 272 kts | 62° |
| 2026-05-08 03:18 | 39.02247 | -77.27923 | 4643 ft | 272 kts | 62° |
| 2026-05-08 03:19 | 39.02835 | -77.25606 | 4309 ft | 279 kts | 82° |
| 2026-05-08 03:19 | 39.02513 | -77.23144 | 4000 ft | 284 kts | 115° |
| 2026-05-08 03:19 | 39.01323 | -77.21146 | 3721 ft | 282 kts | 137° |
| 2026-05-08 03:19 | 38.99887 | -77.19457 | 3387 ft | 272 kts | 139° |
| 2026-05-08 03:20 | 38.98573 | -77.17903 | 3267 ft | 247 kts | 139° |
| 2026-05-08 03:20 | 38.97347 | -77.16475 | 3260 ft | 228 kts | 140° |
| 2026-05-08 03:20 | 38.96206 | -77.15190 | 3190 ft | 212 kts | 141° |
| 2026-05-08 03:20 | 38.95064 | -77.14000 | 2903 ft | 209 kts | 144° |
| 2026-05-08 03:21 | 38.93930 | -77.12889 | 2625 ft | 200 kts | 146° |
| 2026-05-08 03:21 | 38.92819 | -77.11826 | 2199 ft | 197 kts | 144° |
| 2026-05-08 03:21 | 38.91801 | -77.10698 | 1846 ft | 189 kts | 139° |
| 2026-05-08 03:21 | 38.91026 | -77.09381 | 1544 ft | 176 kts | 120° |
| 2026-05-08 03:22 | 38.90498 | -77.08031 | 1308 ft | 167 kts | 122° |
| 2026-05-08 03:22 | 38.89866 | -77.06844 | 1088 ft | 159 kts | 133° |
| 2026-05-08 03:22 | 38.89134 | -77.05833 | 853 ft | 148 kts | 140° |
| 2026-05-08 03:22 | 38.88393 | -77.04969 | 579 ft | 142 kts | 145° |
| 2026-05-08 03:23 | 38.87609 | -77.04223 | 421 ft | 136 kts | 156° |
| 2026-05-08 03:23 | 38.86691 | -77.03933 | 203 ft | 148 kts | 180° |
| 2026-05-08 03:23 | 38.85705 | -77.03826 | 35 ft | 134 kts | 179° |
| 2026-05-08 03:23 | 38.84882 | -77.03743 | 22 ft | 99 kts | 176° |
| 2026-05-08 03:24 | 38.84381 | -77.03698 | 22 ft | 30 kts | 175° |
| 2026-05-08 03:24 | 38.84271 | -77.03757 | 24 ft | 13 kts | 292° |
| 2026-05-08 03:24 | 38.84332 | -77.03830 | 26 ft | 12 kts | 340° |
| 2026-05-08 03:24 | 38.84383 | -77.03905 | 27 ft | 12 kts | 277° |
| 2026-05-08 03:25 | 38.84379 | -77.04033 | 26 ft | 16 kts | 266° |
| 2026-05-08 03:25 | 38.84398 | -77.04106 | 26 ft | 7 kts | 323° |
| 2026-05-08 03:25 | 38.84445 | -77.04124 | 27 ft | 8 kts | 350° |
| 2026-05-08 03:25 | 38.84537 | -77.04140 | 27 ft | 18 kts | 352° |
| 2026-05-08 03:26 | 38.84596 | -77.04200 | 30 ft | 8 kts | 271° |
| 2026-05-08 03:26 | 38.84610 | -77.04250 | 28 ft | 5 kts | 343° |
| 2026-05-08 03:26 | 38.84634 | -77.04247 | 27 ft | 0 kts | 350° |